Big Pine, California
Current Conditions -  °F | °C
As of 1:56 PM on Friday 24 Oct 2014 (Local Time) from KBIH Reporting Station
Clear Clear  
Wind Chill: 81°   Ceiling: Unl
Heat Index: 81°   Visibility: 10mi
Dew Point: 20°   Wind: 23mph
Humidity: 10%   Direction: 170°S
Pressure: 29.99"   Gusts: 36mph
Location:  37.16°N, 118.29°W
Report Text: KBIH 242056Z AUTO 17020G31KT 10SM CLR 27/M07 A2999 RMK AO2 PK WND 16032/2012 SLP120 T02721067 58040
Loading
Personal Weather Stations






























Interactive Weather Map
Tropical Storm Tracking
New forecast layout! Learn more

10-Day Weather Forecast

Advertisements
Track Severe Weather on mobile